.
WxDataArchive / Data Records for 2012-08-06
2012-08-05 August 2012 2012-08-07

Data Records for Monday, 06 August 2012

Time	Temp	Chill	HIndex	Humid	Dewpt	 Wind 	HiWind	WindDir	Rain 	Barom 
-----	----	-----	------	-----	-----	------	------	-------	-----	----- 
00:00	64.3	64.3	64.3	70	54.3	0	0	---	0.00	30.121 
00:05	64.3	64.3	64.3	70	54.3	0	0	---	0.00	30.121 
00:10	64.3	64.3	64.3	70	54.3	0	0	---	0.00	30.121 
00:15	64.2	64.2	64.2	70	54.2	0	0	---	0.00	30.123 
00:20	64.0	64.0	64.0	70	54.0	0	0	---	0.00	30.123 
00:25	63.7	63.7	63.7	71	54.1	0	0	---	0.00	30.123 
00:30	63.2	63.2	63.2	73	54.4	0	0	---	0.00	30.122 
00:35	62.9	62.9	62.9	73	54.1	0	0	---	0.00	30.122 
00:40	62.6	62.6	62.6	74	54.2	0	0	---	0.00	30.122 
00:45	62.3	62.3	62.3	75	54.3	0	0	---	0.00	30.123 
00:50	62.3	62.3	62.3	75	54.3	0	0	---	0.00	30.123 
00:55	62.1	62.1	62.1	76	54.4	0	0	---	0.00	30.123 
01:00	62.0	62.0	62.0	77	54.7	0	0	---	0.00	30.125 
01:05	62.0	62.0	62.0	77	54.7	0	0	---	0.00	30.125 
01:10	61.8	61.8	61.8	77	54.5	0	0	---	0.00	30.125 
01:15	61.6	61.6	61.6	77	54.3	0	0	---	0.00	30.125 
01:20	61.5	61.5	61.5	78	54.6	0	0	---	0.00	30.125 
01:25	61.2	61.2	61.2	79	54.6	0	0	---	0.00	30.125 
01:30	60.9	60.9	60.9	79	54.3	0	0	---	0.00	30.123 
01:35	60.7	60.7	60.7	80	54.5	0	0	---	0.00	30.123 
01:40	60.4	60.4	60.4	81	54.5	0	0	---	0.00	30.123 
01:45	60.1	60.1	60.1	81	54.2	0	0	---	0.00	30.122 
01:50	59.9	59.9	59.9	81	54.1	0	0	---	0.00	30.122 
01:55	59.6	59.6	59.6	82	54.1	0	0	---	0.00	30.122 
02:00	59.5	59.5	59.5	83	54.3	0	0	---	0.00	30.115 
02:05	59.2	59.2	59.2	83	54.0	0	0	---	0.00	30.115 
02:10	58.9	58.9	58.9	84	54.1	0	0	---	0.00	30.115 
02:15	58.7	58.7	58.7	84	53.9	0	0	---	0.00	30.115 
02:20	58.4	58.4	58.4	84	53.6	0	0	---	0.00	30.115 
02:25	58.3	58.3	58.3	85	53.8	0	0	---	0.00	30.115 
02:30	58.1	58.1	58.1	85	53.6	0	0	---	0.00	30.117 
02:35	58.0	58.0	58.0	86	53.8	0	0	---	0.00	30.117 
02:40	57.8	57.8	57.8	86	53.6	0	0	---	0.00	30.117 
02:45	57.6	57.6	57.6	86	53.4	0	0	---	0.00	30.114 
02:50	57.5	57.5	57.5	87	53.7	0	0	---	0.00	30.114 
02:55	57.3	57.3	57.3	87	53.5	0	0	---	0.00	30.114 
03:00	57.3	57.3	57.3	88	53.8	0	0	---	0.00	30.115 
03:05	57.2	57.2	57.2	88	53.7	0	0	---	0.00	30.115 
03:10	57.0	57.0	57.0	88	53.5	0	0	---	0.00	30.115 
03:15	56.9	56.9	56.9	88	53.4	0	0	---	0.00	30.114 
03:20	56.9	56.9	56.9	88	53.4	0	0	---	0.00	30.114 
03:25	56.7	56.7	56.7	89	53.5	0	0	---	0.00	30.114 
03:30	56.6	56.6	56.6	89	53.4	0	0	---	0.00	30.113 
03:35	56.5	56.5	56.5	89	53.3	0	0	---	0.00	30.113 
03:40	56.3	56.3	56.3	89	53.1	0	0	---	0.00	30.113 
03:45	56.3	56.3	56.3	90	53.4	0	0	---	0.00	30.117 
03:50	56.3	56.3	56.3	90	53.4	0	0	---	0.00	30.117 
03:55	56.2	56.2	56.2	90	53.3	0	0	---	0.00	30.117 
04:00	56.2	56.2	56.2	90	53.3	0	0	---	0.00	30.115 
04:05	56.0	56.0	56.0	90	53.1	0	0	---	0.00	30.115 
04:10	56.0	56.0	56.0	90	53.1	0	0	---	0.00	30.115 
04:15	56.0	56.0	56.0	91	53.4	0	0	---	0.00	30.114 
04:20	55.9	55.9	55.9	91	53.3	0	0	---	0.00	30.114 
04:25	55.9	55.9	55.9	91	53.3	0	0	---	0.00	30.114 
04:30	55.7	55.7	55.7	91	53.1	0	0	---	0.00	30.113 
04:35	55.7	55.7	55.7	91	53.1	0	0	---	0.00	30.113 
04:40	55.7	55.7	55.7	91	53.1	0	0	---	0.00	30.113 
04:45	55.6	55.6	55.6	91	53.0	0	0	---	0.00	30.114 
04:50	55.6	55.6	55.6	91	53.0	0	0	---	0.00	30.114 
04:55	55.4	55.4	55.4	91	52.8	0	0	---	0.00	30.114 
05:00	55.4	55.4	55.4	92	53.1	0	0	---	0.00	30.116 
05:05	55.4	55.4	55.4	92	53.1	0	0	---	0.00	30.116 
05:10	55.4	55.4	55.4	92	53.1	0	0	---	0.00	30.116 
05:15	55.3	55.3	55.3	92	53.0	0	0	---	0.00	30.117 
05:20	55.3	55.3	55.3	92	53.0	0	0	---	0.00	30.117 
05:25	55.3	55.3	55.3	92	53.0	0	0	---	0.00	30.117 
05:30	55.3	55.3	55.3	92	53.0	0	0	---	0.00	30.119 
05:35	55.3	55.3	55.3	92	53.0	0	0	---	0.00	30.119 
05:40	55.3	55.3	55.3	92	53.0	0	0	---	0.00	30.119 
05:45	55.3	55.3	55.3	92	53.0	0	0	---	0.00	30.126 
05:50	55.3	55.3	55.3	92	53.0	0	0	---	0.00	30.126 
05:55	55.3	55.3	55.3	92	53.0	0	0	---	0.00	30.126 
06:00	55.3	55.3	55.3	92	53.0	0	0	---	0.00	30.128 
06:05	55.3	55.3	55.3	92	53.0	0	0	---	0.00	30.128 
06:10	55.1	55.1	55.1	92	52.8	0	0	---	0.00	30.128 
06:15	55.1	55.1	55.1	92	52.8	0	0	---	0.00	30.133 
06:20	55.1	55.1	55.1	92	52.8	0	0	---	0.00	30.133 
06:25	55.0	55.0	55.0	92	52.7	0	0	---	0.00	30.133 
06:30	55.1	55.1	55.1	93	53.1	0	0	---	0.00	30.136 
06:35	55.0	55.0	55.0	93	53.0	0	0	---	0.00	30.136 
06:40	55.0	55.0	55.0	93	53.0	0	0	---	0.00	30.136 
06:45	54.8	54.8	54.8	93	52.8	0	0	---	0.00	30.144 
06:50	54.8	54.8	54.8	93	52.8	0	0	---	0.00	30.144 
06:55	54.8	54.8	54.8	93	52.8	0	0	---	0.00	30.144 
07:00	55.0	55.0	55.0	93	53.0	0	0	---	0.00	30.145 
07:05	55.0	55.0	55.0	93	53.0	0	0	---	0.00	30.145 
07:10	55.0	55.0	55.0	93	53.0	0	0	---	0.00	30.145 
07:15	55.1	55.1	55.1	93	53.1	0	0	---	0.00	30.149 
07:20	55.3	55.3	55.3	93	53.3	0	0	---	0.00	30.149 
07:25	55.4	55.4	55.4	93	53.4	0	0	---	0.00	30.149 
07:30	55.6	55.6	55.6	93	53.6	0	0	---	0.00	30.149 
07:35	55.9	55.9	55.9	94	54.2	0	0	---	0.00	30.149 
07:40	56.2	56.2	56.2	94	54.5	0	0	---	0.00	30.149 
07:45	56.5	56.5	56.5	94	54.8	0	0	---	0.00	30.150 
07:50	56.9	56.9	56.9	94	55.2	0	0	---	0.00	30.150 
07:55	57.5	57.5	57.5	93	55.5	0	0	---	0.00	30.150 
08:00	58.3	58.3	58.3	94	56.6	0	1	248	0.00	30.152 
08:05	59.5	59.5	59.5	92	57.2	0	2	248	0.00	30.152 
08:10	60.5	60.5	60.5	90	57.5	0	1	248	0.00	30.152 
08:15	61.6	61.6	61.6	88	58.0	0	1	248	0.00	30.156 
08:20	62.7	62.7	62.7	83	57.5	0	1	248	0.00	30.156 
08:25	63.7	63.7	63.7	78	56.7	0	2	248	0.00	30.156 
08:30	64.7	64.7	64.7	75	56.6	0	4	248	0.00	30.154 
08:35	65.5	65.5	65.5	72	56.2	0	2	248	0.00	30.154 
08:40	66.1	66.1	66.1	70	56.0	0	2	135	0.00	30.154 
08:45	66.6	66.6	66.6	67	55.3	1	5	90	0.00	30.150 
08:50	66.8	66.8	66.8	66	55.1	2	4	90	0.00	30.150 
08:55	67.1	67.1	67.1	67	55.8	1	3	90	0.00	30.150 
09:00	67.6	67.6	67.6	66	55.8	1	3	90	0.00	30.155 
09:05	68.1	68.1	68.1	66	56.3	0	2	90	0.00	30.155 
09:10	68.9	68.9	68.9	66	57.1	0	2	90	0.00	30.155 
09:15	69.3	69.3	69.3	63	56.2	1	2	90	0.00	30.156 
09:20	69.4	69.4	69.4	62	55.8	1	4	90	0.00	30.156 
09:25	69.3	69.3	69.3	63	56.2	1	3	90	0.00	30.156 
09:30	69.4	69.4	69.4	62	55.8	1	4	90	0.00	30.157 
09:35	69.6	69.6	69.6	61	55.5	2	5	90	0.00	30.157 
09:40	69.4	69.4	69.4	62	55.8	3	5	90	0.00	30.157 
09:45	69.8	69.8	69.8	62	56.2	1	3	90	0.00	30.157 
09:50	70.3	70.3	70.3	63	57.1	1	4	90	0.00	30.157 
09:55	70.9	70.9	70.9	63	57.7	1	4	90	0.00	30.157 
10:00	71.6	71.6	71.6	60	57.0	1	4	90	0.00	30.153 
10:05	72.1	72.1	72.1	59	57.0	2	5	90	0.00	30.153 
10:10	72.3	72.3	72.3	58	56.7	2	4	90	0.00	30.153 
10:15	72.3	72.3	72.3	58	56.7	1	4	90	0.00	30.157 
10:20	72.3	72.3	72.3	58	56.7	2	6	90	0.00	30.157 
10:25	72.3	72.3	72.3	60	57.6	3	6	90	0.00	30.157 
10:30	72.1	72.1	72.1	58	56.5	3	6	68	0.00	30.150 
10:35	72.3	72.3	72.3	59	57.2	3	6	68	0.00	30.150 
10:40	72.7	72.7	72.7	59	57.5	2	4	68	0.00	30.150 
10:45	73.5	73.5	73.5	56	56.8	1	4	68	0.00	30.148 
10:50	74.2	74.2	74.2	55	57.0	2	5	68	0.00	30.148 
10:55	74.4	74.4	74.4	56	57.7	2	4	68	0.00	30.148 
11:00	74.2	74.2	74.2	56	57.5	3	6	68	0.00	30.145 
11:05	74.2	74.2	74.2	56	57.5	1	5	90	0.00	30.145 
11:10	74.7	74.7	74.7	54	56.9	1	4	90	0.00	30.145 
11:15	75.4	75.4	77.8	52	56.5	1	3	90	0.00	30.145 
11:20	75.8	75.8	78.0	49	55.3	1	2	90	0.00	30.145 
11:25	76.5	76.5	78.3	50	56.5	0	2	90	0.00	30.145 
11:30	77.0	77.0	78.5	47	55.2	1	4	90	0.00	30.144 
11:35	77.0	77.0	78.6	49	56.4	1	3	90	0.00	30.144 
11:40	77.0	77.0	78.6	50	56.9	1	4	90	0.00	30.144 
11:45	76.8	76.8	78.4	48	55.6	2	5	90	0.00	30.143 
11:50	76.3	76.3	78.2	50	56.3	2	4	90	0.00	30.143 
11:55	76.1	76.1	78.1	49	55.5	1	3	90	0.00	30.143 
12:00	76.0	76.0	78.1	50	56.0	3	7	90	0.00	30.143 
12:05	76.1	76.1	78.1	50	56.1	2	4	90	0.00	30.143 
12:10	76.5	76.5	78.3	49	55.9	1	5	90	0.00	30.143 
12:15	77.0	77.0	78.6	51	57.5	0	3	90	0.00	30.142 
12:20	77.4	77.4	78.7	46	55.0	1	4	90	0.00	30.142 
12:25	77.9	77.9	79.1	48	56.6	2	4	90	0.00	30.142 
12:30	78.1	78.1	79.3	49	57.4	1	3	90	0.00	30.137 
12:35	78.5	78.5	79.5	49	57.7	1	3	90	0.00	30.137 
12:40	78.6	78.6	79.4	46	56.1	1	2	22	0.00	30.137 
12:45	78.3	78.3	79.3	47	56.4	1	2	22	0.00	30.130 
12:50	78.5	78.5	79.3	45	55.4	1	4	45	0.00	30.130 
12:55	79.0	79.0	79.6	45	55.8	1	3	135	0.00	30.130 
13:00	79.0	79.0	79.7	46	56.4	1	4	112	0.00	30.128 
13:05	78.8	78.8	79.6	46	56.2	1	3	112	0.00	30.128 
13:10	78.6	78.6	79.4	46	56.1	1	4	112	0.00	30.128 
13:15	78.8	78.8	79.7	48	57.4	1	4	68	0.00	30.128 
13:20	79.0	79.0	79.9	49	58.2	1	3	68	0.00	30.128 
13:25	79.4	79.4	79.8	44	55.6	1	4	68	0.00	30.128 
13:30	79.2	79.2	79.7	44	55.4	1	3	90	0.00	30.118 
13:35	79.2	79.2	79.6	43	54.7	1	4	112	0.00	30.118 
13:40	79.2	79.2	79.6	43	54.7	1	3	112	0.00	30.118 
13:45	79.2	79.2	79.8	46	56.6	2	4	112	0.00	30.115 
13:50	79.2	79.2	79.5	42	54.1	1	3	112	0.00	30.115 
13:55	79.6	79.6	79.9	43	55.1	1	4	112	0.00	30.115 
14:00	79.8	79.8	80.0	42	54.6	1	6	112	0.00	30.112 
14:05	79.8	79.8	80.2	45	56.5	2	4	68	0.00	30.112 
14:10	79.8	79.8	80.1	44	55.9	1	4	90	0.00	30.112 
14:15	79.8	79.8	80.2	45	56.5	2	4	90	0.00	30.109 
14:20	79.9	79.9	80.3	45	56.6	1	4	90	0.00	30.109 
14:25	80.1	80.1	80.3	44	56.2	2	3	90	0.00	30.109 
14:30	80.1	80.1	80.3	43	55.6	2	4	90	0.00	30.103 
14:35	80.1	80.1	80.3	44	56.2	1	3	112	0.00	30.103 
14:40	79.9	79.9	80.2	44	56.0	1	3	112	0.00	30.103 
14:45	80.5	80.5	80.6	44	56.6	1	4	112	0.00	30.098 
14:50	80.9	80.9	80.9	43	56.3	1	3	112	0.00	30.098 
14:55	81.2	81.2	81.2	44	57.2	0	3	112	0.00	30.098 
15:00	81.2	81.2	80.9	41	55.2	1	4	112	0.00	30.091 
15:05	81.2	81.2	81.1	43	56.5	0	2	112	0.00	30.091 
15:10	81.1	81.1	80.7	40	54.5	2	5	112	0.00	30.091 
15:15	80.3	80.3	80.2	41	54.4	1	4	90	0.00	30.087 
15:20	80.3	80.3	80.4	43	55.7	2	4	90	0.00	30.087 
15:25	80.7	80.7	80.6	42	55.4	1	4	90	0.00	30.087 
15:30	81.1	81.1	80.8	41	55.1	2	5	90	0.00	30.082 
15:35	81.4	81.4	81.1	41	55.4	1	4	112	0.00	30.082 
15:40	81.8	81.8	81.5	42	56.4	1	3	112	0.00	30.082 
15:45	82.2	82.2	81.6	40	55.4	2	6	112	0.00	30.077 
15:50	82.0	82.0	81.8	43	57.3	1	4	90	0.00	30.077 
15:55	82.2	82.2	81.6	40	55.4	1	3	292	0.00	30.077 
16:00	82.4	82.4	81.8	40	55.6	1	4	292	0.00	30.070 
16:05	82.4	82.4	81.8	40	55.6	1	4	90	0.00	30.070 
16:10	82.4	82.4	81.8	40	55.6	1	3	90	0.00	30.070 
16:15	82.4	82.4	81.6	38	54.2	1	2	90	0.00	30.068 
16:20	82.0	82.0	81.7	42	56.6	1	3	90	0.00	30.068 
16:25	82.2	82.2	81.5	39	54.7	1	4	90	0.00	30.068 
16:30	82.4	82.4	81.7	39	54.9	1	2	90	0.00	30.061 
16:35	82.4	82.4	81.7	39	54.9	0	3	90	0.00	30.061 
16:40	82.4	82.4	81.8	40	55.6	1	3	90	0.00	30.061 
16:45	82.4	82.4	81.4	37	53.5	1	5	90	0.00	30.055 
16:50	82.4	82.4	82.0	42	57.0	1	3	112	0.00	30.055 
16:55	82.4	82.4	81.9	41	56.3	1	3	112	0.00	30.055 
17:00	82.6	82.6	82.0	40	55.8	1	4	90	0.00	30.053 
17:05	82.4	82.4	81.8	40	55.6	2	4	90	0.00	30.053 
17:10	82.4	82.4	81.9	41	56.3	0	3	90	0.00	30.053 
17:15	82.6	82.6	81.8	39	55.1	1	2	90	0.00	30.047 
17:20	82.8	82.8	81.7	36	53.1	0	2	90	0.00	30.047 
17:25	83.0	83.0	82.1	38	54.7	0	3	90	0.00	30.047 
17:30	82.8	82.8	81.9	38	54.6	1	3	112	0.00	30.046 
17:35	82.8	82.8	82.0	39	55.3	0	4	112	0.00	30.046 
17:40	82.4	82.4	81.4	37	53.5	1	2	270	0.00	30.046 
17:45	82.2	82.2	81.3	37	53.3	0	2	270	0.00	30.040 
17:50	82.4	82.4	81.7	39	54.9	0	1	270	0.00	30.040 
17:55	82.2	82.2	81.1	35	51.8	0	2	270	0.00	30.040 
18:00	82.2	82.2	81.0	34	51.0	0	2	270	0.00	30.038 
18:05	82.0	82.0	80.9	35	51.6	0	2	270	0.00	30.038 
18:10	81.8	81.8	81.0	37	53.0	0	2	270	0.00	30.038 
18:15	81.6	81.6	80.5	34	50.5	0	2	270	0.00	30.037 
18:20	81.6	81.6	80.5	34	50.5	0	1	270	0.00	30.037 
18:25	81.4	81.4	80.5	35	51.1	0	1	270	0.00	30.037 
18:30	81.2	81.2	80.3	35	50.9	0	2	270	0.00	30.035 
18:35	81.1	81.1	80.3	35	50.8	0	2	270	0.00	30.035 
18:40	80.9	80.9	80.1	35	50.7	0	2	270	0.00	30.035 
18:45	80.7	80.7	79.9	34	49.7	0	2	270	0.00	30.035 
18:50	80.5	80.5	79.8	34	49.5	0	2	270	0.00	30.035 
18:55	80.3	80.3	79.7	35	50.1	0	2	270	0.00	30.035 
19:00	80.1	80.1	79.5	34	49.2	0	2	270	0.00	30.031 
19:05	79.9	79.9	79.4	34	49.0	0	1	270	0.00	30.031 
19:10	79.9	79.9	79.5	35	49.8	0	1	270	0.00	30.031 
19:15	79.8	79.8	79.3	34	48.9	0	2	270	0.00	30.023 
19:20	79.8	79.8	79.5	36	50.4	0	2	270	0.00	30.023 
19:25	79.6	79.6	79.5	38	51.7	0	1	270	0.00	30.023 
19:30	79.8	79.8	79.6	38	51.9	0	2	270	0.00	30.022 
19:35	79.6	79.6	79.6	39	52.4	0	1	270	0.00	30.022 
19:40	79.4	79.4	79.5	40	52.9	0	0	---	0.00	30.022 
19:45	79.4	79.4	79.6	41	53.6	0	2	270	0.00	30.023 
19:50	79.6	79.6	79.7	40	53.1	1	2	270	0.00	30.023 
19:55	79.4	79.4	79.6	41	53.6	0	2	270	0.00	30.023 
20:00	79.2	79.2	79.4	40	52.8	1	3	270	0.00	30.022 
20:05	79.0	79.0	79.2	39	51.9	1	2	270	0.00	30.022 
20:10	78.8	78.8	79.2	40	52.4	0	2	270	0.00	30.022 
20:15	78.6	78.6	79.1	41	52.9	1	2	270	0.00	30.015 
20:20	78.5	78.5	79.1	41	52.8	0	2	270	0.00	30.015 
20:25	78.3	78.3	79.0	42	53.3	0	1	270	0.00	30.015 
20:30	77.9	77.9	78.8	42	52.9	0	0	---	0.00	30.013 
20:35	77.4	77.4	78.5	42	52.5	0	0	---	0.00	30.013 
20:40	76.8	76.8	78.3	44	53.2	0	1	270	0.00	30.013 
20:45	76.5	76.5	78.2	44	52.9	0	0	---	0.00	30.015 
20:50	76.0	76.0	78.0	45	53.1	0	0	---	0.00	30.015 
20:55	75.6	75.6	77.8	46	53.3	0	0	---	0.00	30.015 
21:00	74.9	74.9	74.9	46	52.7	0	0	---	0.00	30.016 
21:05	74.4	74.4	74.4	46	52.3	0	0	---	0.00	30.016 
21:10	73.9	73.9	73.9	48	53.0	0	0	---	0.00	30.016 
21:15	73.2	73.2	73.2	49	52.9	0	0	---	0.00	30.014 
21:20	72.8	72.8	72.8	50	53.1	0	0	---	0.00	30.014 
21:25	72.3	72.3	72.3	50	52.6	0	0	---	0.00	30.014 
21:30	71.8	71.8	71.8	52	53.2	0	0	---	0.00	30.016 
21:35	71.3	71.3	71.3	54	53.8	0	0	---	0.00	30.016 
21:40	70.9	70.9	70.9	56	54.4	0	0	---	0.00	30.016 
21:45	70.4	70.4	70.4	56	53.9	0	0	---	0.00	30.017 
21:50	69.8	69.8	69.8	56	53.4	0	0	---	0.00	30.017 
21:55	69.1	69.1	69.1	58	53.7	0	0	---	0.00	30.017 
22:00	68.8	68.8	68.8	58	53.4	0	0	---	0.00	30.021 
22:05	68.3	68.3	68.3	60	53.9	0	0	---	0.00	30.021 
22:10	67.9	67.9	67.9	60	53.5	0	0	---	0.00	30.021 
22:15	67.6	67.6	67.6	62	54.1	0	0	---	0.00	30.020 
22:20	67.3	67.3	67.3	63	54.3	0	0	---	0.00	30.020 
22:25	66.9	66.9	66.9	64	54.3	0	0	---	0.00	30.020 
22:30	66.6	66.6	66.6	65	54.5	0	0	---	0.00	30.024 
22:35	66.4	66.4	66.4	66	54.7	0	0	---	0.00	30.024 
22:40	66.1	66.1	66.1	67	54.8	0	0	---	0.00	30.024 
22:45	65.8	65.8	65.8	68	54.9	0	0	---	0.00	30.022 
22:50	65.6	65.6	65.6	69	55.1	0	0	---	0.00	30.022 
22:55	65.5	65.5	65.5	70	55.4	0	0	---	0.00	30.022 
23:00	65.2	65.2	65.2	70	55.2	0	0	---	0.00	30.021 
23:05	65.0	65.0	65.0	71	55.4	0	0	---	0.00	30.021 
23:10	64.7	64.7	64.7	72	55.5	0	0	---	0.00	30.021 
23:15	64.5	64.5	64.5	73	55.6	0	0	---	0.00	30.019 
23:20	64.3	64.3	64.3	73	55.5	0	0	---	0.00	30.019 
23:25	64.0	64.0	64.0	74	55.5	0	0	---	0.00	30.019 
23:30	63.9	63.9	63.9	75	55.8	0	0	---	0.00	30.018 
23:35	63.7	63.7	63.7	75	55.6	0	0	---	0.00	30.018 
23:40	63.5	63.5	63.5	76	55.8	0	0	---	0.00	30.018 
23:45	63.2	63.2	63.2	77	55.9	0	0	---	0.00	30.019 
23:50	63.1	63.1	63.1	77	55.8	0	0	---	0.00	30.019 
23:55	62.9	62.9	62.9	78	55.9	0	0	---	0.00	30.019 

CoCoRaHS
IN-AL-39
A2 Web Hosting
Creative Commons License
GoDaddy
search engine by freefind advanced

loaded 2018-11-20 09:12:08 • last modified 2010-11-18 10:43:29
Privacy PolicyDisclaimer
• wx.awcolley.com is powered by PmWiki v.2002016 •
• all content (unless otherwise noted) © 2018 A W Colley